sensor_id;sensor_type;location;lat;lon;timestamp;temperature;humidity
4749;DHT22;2388;53.582;9.962;2024-01-11T00:02:13;-1.10;99.90
4749;DHT22;2388;53.582;9.962;2024-01-11T00:04:39;-1.10;99.90
4749;DHT22;2388;53.582;9.962;2024-01-11T00:07:05;-1.10;99.90
4749;DHT22;2388;53.582;9.962;2024-01-11T00:09:31;-1.00;99.90
4749;DHT22;2388;53.582;9.962;2024-01-11T00:11:56;-1.00;99.90
4749;DHT22;2388;53.582;9.962;2024-01-11T00:14:22;-1.00;99.90
4749;DHT22;2388;53.582;9.962;2024-01-11T00:16:47;-1.00;99.90
4749;DHT22;2388;53.582;9.962;2024-01-11T00:19:13;-1.10;99.90
4749;DHT22;2388;53.582;9.962;2024-01-11T00:21:38;-0.90;99.90
4749;DHT22;2388;53.582;9.962;2024-01-11T00:24:04;-1.00;99.90
4749;DHT22;2388;53.582;9.962;2024-01-11T00:26:29;-1.00;99.90
4749;DHT22;2388;53.582;9.962;2024-01-11T00:28:55;-1.00;99.90
4749;DHT22;2388;53.582;9.962;2024-01-11T00:31:20;-1.00;99.90
4749;DHT22;2388;53.582;9.962;2024-01-11T00:33:46;-1.00;99.90
4749;DHT22;2388;53.582;9.962;2024-01-11T00:36:17;-1.00;99.90
4749;DHT22;2388;53.582;9.962;2024-01-11T00:38:43;-1.00;99.90
4749;DHT22;2388;53.582;9.962;2024-01-11T00:41:08;-1.00;99.90
4749;DHT22;2388;53.582;9.962;2024-01-11T00:43:34;-1.00;99.90
4749;DHT22;2388;53.582;9.962;2024-01-11T00:45:59;-0.90;99.90
4749;DHT22;2388;53.582;9.962;2024-01-11T00:48:25;-0.90;99.90
4749;DHT22;2388;53.582;9.962;2024-01-11T00:50:51;-0.90;99.90
4749;DHT22;2388;53.582;9.962;2024-01-11T00:53:16;-0.90;99.90
4749;DHT22;2388;53.582;9.962;2024-01-11T00:55:42;-0.90;99.90
4749;DHT22;2388;53.582;9.962;2024-01-11T00:58:08;-0.80;99.90
4749;DHT22;2388;53.582;9.962;2024-01-11T01:00:33;-0.80;99.90
4749;DHT22;2388;53.582;9.962;2024-01-11T01:02:59;-0.90;99.90
4749;DHT22;2388;53.582;9.962;2024-01-11T01:05:24;-0.90;99.90
4749;DHT22;2388;53.582;9.962;2024-01-11T01:07:50;-0.90;99.90
4749;DHT22;2388;53.582;9.962;2024-01-11T01:10:16;-0.90;99.90
4749;DHT22;2388;53.582;9.962;2024-01-11T01:12:41;-0.90;99.90
4749;DHT22;2388;53.582;9.962;2024-01-11T01:15:07;-0.90;99.90
4749;DHT22;2388;53.582;9.962;2024-01-11T01:17:32;-0.90;99.90
4749;DHT22;2388;53.582;9.962;2024-01-11T01:19:58;-0.90;99.90
4749;DHT22;2388;53.582;9.962;2024-01-11T01:22:23;-0.90;99.90
4749;DHT22;2388;53.582;9.962;2024-01-11T01:24:49;-1.00;99.90
4749;DHT22;2388;53.582;9.962;2024-01-11T01:27:15;-0.90;99.90
4749;DHT22;2388;53.582;9.962;2024-01-11T01:29:41;-1.00;99.90
4749;DHT22;2388;53.582;9.962;2024-01-11T01:32:06;-1.00;99.90
4749;DHT22;2388;53.582;9.962;2024-01-11T01:34:32;-1.00;99.90
4749;DHT22;2388;53.582;9.962;2024-01-11T01:36:57;-1.00;99.90
4749;DHT22;2388;53.582;9.962;2024-01-11T01:39:23;-1.10;99.90
4749;DHT22;2388;53.582;9.962;2024-01-11T01:41:48;-1.00;99.90
4749;DHT22;2388;53.582;9.962;2024-01-11T01:44:14;-1.10;99.90
4749;DHT22;2388;53.582;9.962;2024-01-11T01:46:39;-1.10;99.90
4749;DHT22;2388;53.582;9.962;2024-01-11T01:49:05;-1.00;99.90
4749;DHT22;2388;53.582;9.962;2024-01-11T01:51:31;-1.00;99.90
4749;DHT22;2388;53.582;9.962;2024-01-11T01:53:57;-1.10;99.90
4749;DHT22;2388;53.582;9.962;2024-01-11T01:56:24;-1.10;99.90
4749;DHT22;2388;53.582;9.962;2024-01-11T01:58:51;-1.20;99.90
4749;DHT22;2388;53.582;9.962;2024-01-11T02:01:19;-1.20;99.90
4749;DHT22;2388;53.582;9.962;2024-01-11T02:03:46;-1.10;99.90
4749;DHT22;2388;53.582;9.962;2024-01-11T02:06:12;-1.10;99.90
4749;DHT22;2388;53.582;9.962;2024-01-11T02:08:40;-1.10;99.90
4749;DHT22;2388;53.582;9.962;2024-01-11T02:11:07;-1.00;99.90
4749;DHT22;2388;53.582;9.962;2024-01-11T02:13:33;-1.10;99.90
4749;DHT22;2388;53.582;9.962;2024-01-11T02:15:58;-1.00;99.90
4749;DHT22;2388;53.582;9.962;2024-01-11T02:18:24;-1.10;99.90
4749;DHT22;2388;53.582;9.962;2024-01-11T02:20:50;-1.10;99.90
4749;DHT22;2388;53.582;9.962;2024-01-11T02:23:18;-1.10;99.90
4749;DHT22;2388;53.582;9.962;2024-01-11T02:25:44;-1.00;99.90
4749;DHT22;2388;53.582;9.962;2024-01-11T02:28:10;-1.00;99.90
4749;DHT22;2388;53.582;9.962;2024-01-11T02:30:36;-1.00;99.90
4749;DHT22;2388;53.582;9.962;2024-01-11T02:33:02;-1.00;99.90
4749;DHT22;2388;53.582;9.962;2024-01-11T02:35:28;-0.90;99.90
4749;DHT22;2388;53.582;9.962;2024-01-11T02:37:54;-0.90;99.90
4749;DHT22;2388;53.582;9.962;2024-01-11T02:40:20;-0.90;99.90
4749;DHT22;2388;53.582;9.962;2024-01-11T02:42:46;-0.90;99.90
4749;DHT22;2388;53.582;9.962;2024-01-11T02:45:12;-0.90;99.90
4749;DHT22;2388;53.582;9.962;2024-01-11T02:47:38;-0.90;99.90
4749;DHT22;2388;53.582;9.962;2024-01-11T02:50:05;-0.90;99.90
4749;DHT22;2388;53.582;9.962;2024-01-11T02:52:30;-0.90;99.90
4749;DHT22;2388;53.582;9.962;2024-01-11T02:54:56;-0.90;99.90
4749;DHT22;2388;53.582;9.962;2024-01-11T02:57:21;-0.90;99.90
4749;DHT22;2388;53.582;9.962;2024-01-11T02:59:47;-0.90;99.90
4749;DHT22;2388;53.582;9.962;2024-01-11T03:02:12;-0.90;99.90
4749;DHT22;2388;53.582;9.962;2024-01-11T03:04:38;-0.90;99.90
4749;DHT22;2388;53.582;9.962;2024-01-11T03:07:03;-0.90;99.90
4749;DHT22;2388;53.582;9.962;2024-01-11T03:09:29;-0.90;99.90
4749;DHT22;2388;53.582;9.962;2024-01-11T03:11:54;-0.80;99.90
4749;DHT22;2388;53.582;9.962;2024-01-11T03:14:20;-0.90;99.90
4749;DHT22;2388;53.582;9.962;2024-01-11T03:16:45;-0.90;99.90
4749;DHT22;2388;53.582;9.962;2024-01-11T03:19:11;-0.90;99.90
4749;DHT22;2388;53.582;9.962;2024-01-11T03:21:42;-0.90;99.90
4749;DHT22;2388;53.582;9.962;2024-01-11T03:24:07;-0.90;99.90
4749;DHT22;2388;53.582;9.962;2024-01-11T03:26:33;-0.80;99.90
4749;DHT22;2388;53.582;9.962;2024-01-11T03:28:58;-0.80;99.90
4749;DHT22;2388;53.582;9.962;2024-01-11T03:31:24;-0.70;99.90
4749;DHT22;2388;53.582;9.962;2024-01-11T03:33:49;-0.60;99.90
4749;DHT22;2388;53.582;9.962;2024-01-11T03:36:15;-0.70;99.90
4749;DHT22;2388;53.582;9.962;2024-01-11T03:38:40;-0.70;99.90
4749;DHT22;2388;53.582;9.962;2024-01-11T03:41:09;-0.70;99.90
4749;DHT22;2388;53.582;9.962;2024-01-11T03:43:35;-0.70;99.90
4749;DHT22;2388;53.582;9.962;2024-01-11T03:46:01;-0.70;99.90
4749;DHT22;2388;53.582;9.962;2024-01-11T03:48:27;-0.60;99.90
4749;DHT22;2388;53.582;9.962;2024-01-11T03:50:52;-0.60;99.90
4749;DHT22;2388;53.582;9.962;2024-01-11T03:53:18;-0.60;99.90
4749;DHT22;2388;53.582;9.962;2024-01-11T03:55:43;-0.60;99.90
4749;DHT22;2388;53.582;9.962;2024-01-11T03:58:09;-0.60;99.90
4749;DHT22;2388;53.582;9.962;2024-01-11T04:00:34;-0.60;99.90
4749;DHT22;2388;53.582;9.962;2024-01-11T04:02:59;-0.60;99.90
4749;DHT22;2388;53.582;9.962;2024-01-11T04:05:27;-0.60;99.90
4749;DHT22;2388;53.582;9.962;2024-01-11T04:07:52;-0.60;99.90
4749;DHT22;2388;53.582;9.962;2024-01-11T04:10:18;-0.60;99.90
4749;DHT22;2388;53.582;9.962;2024-01-11T04:12:43;-0.60;99.90
4749;DHT22;2388;53.582;9.962;2024-01-11T04:15:11;-0.60;99.90
4749;DHT22;2388;53.582;9.962;2024-01-11T04:17:38;-0.60;99.90
4749;DHT22;2388;53.582;9.962;2024-01-11T04:20:05;-0.60;99.90
4749;DHT22;2388;53.582;9.962;2024-01-11T04:22:31;-0.70;99.90
4749;DHT22;2388;53.582;9.962;2024-01-11T04:24:56;-0.70;99.90
4749;DHT22;2388;53.582;9.962;2024-01-11T04:27:22;-0.60;99.90
4749;DHT22;2388;53.582;9.962;2024-01-11T04:29:47;-0.60;99.90
4749;DHT22;2388;53.582;9.962;2024-01-11T04:32:13;-0.60;99.90
4749;DHT22;2388;53.582;9.962;2024-01-11T04:34:38;-0.60;99.90
4749;DHT22;2388;53.582;9.962;2024-01-11T04:37:04;-0.60;99.90
4749;DHT22;2388;53.582;9.962;2024-01-11T04:39:29;-0.60;99.90
4749;DHT22;2388;53.582;9.962;2024-01-11T04:41:56;-0.60;99.90
4749;DHT22;2388;53.582;9.962;2024-01-11T04:44:21;-0.50;99.90
4749;DHT22;2388;53.582;9.962;2024-01-11T04:46:47;-0.60;99.90
4749;DHT22;2388;53.582;9.962;2024-01-11T04:49:12;-0.60;99.90
4749;DHT22;2388;53.582;9.962;2024-01-11T04:51:38;-0.60;99.90
4749;DHT22;2388;53.582;9.962;2024-01-11T04:54:04;-0.50;99.90
4749;DHT22;2388;53.582;9.962;2024-01-11T04:56:29;-0.50;99.90
4749;DHT22;2388;53.582;9.962;2024-01-11T04:58:55;-0.60;99.90
4749;DHT22;2388;53.582;9.962;2024-01-11T05:01:20;-0.50;99.90
4749;DHT22;2388;53.582;9.962;2024-01-11T05:03:47;-0.50;99.90
4749;DHT22;2388;53.582;9.962;2024-01-11T05:06:19;-0.60;99.90
4749;DHT22;2388;53.582;9.962;2024-01-11T05:08:46;-0.60;99.90
4749;DHT22;2388;53.582;9.962;2024-01-11T05:11:18;-0.60;99.90
4749;DHT22;2388;53.582;9.962;2024-01-11T05:13:44;-0.70;99.90
4749;DHT22;2388;53.582;9.962;2024-01-11T05:16:26;-0.70;99.90
4749;DHT22;2388;53.582;9.962;2024-01-11T05:18:54;-0.50;99.90
4749;DHT22;2388;53.582;9.962;2024-01-11T05:21:20;-0.70;99.90
4749;DHT22;2388;53.582;9.962;2024-01-11T05:23:46;-0.80;99.90
4749;DHT22;2388;53.582;9.962;2024-01-11T05:26:15;-0.80;99.90
4749;DHT22;2388;53.582;9.962;2024-01-11T05:28:40;-0.80;99.90
4749;DHT22;2388;53.582;9.962;2024-01-11T05:31:11;-0.80;99.90
4749;DHT22;2388;53.582;9.962;2024-01-11T05:33:37;-0.70;99.90
4749;DHT22;2388;53.582;9.962;2024-01-11T05:36:03;-0.80;99.90
4749;DHT22;2388;53.582;9.962;2024-01-11T05:38:29;-0.70;99.90
4749;DHT22;2388;53.582;9.962;2024-01-11T05:40:55;-0.70;99.90
4749;DHT22;2388;53.582;9.962;2024-01-11T05:43:21;-0.60;99.90
4749;DHT22;2388;53.582;9.962;2024-01-11T05:45:47;-0.60;99.90
4749;DHT22;2388;53.582;9.962;2024-01-11T05:48:12;-0.60;99.90
4749;DHT22;2388;53.582;9.962;2024-01-11T05:50:37;-0.60;99.90
4749;DHT22;2388;53.582;9.962;2024-01-11T05:53:03;-0.60;99.90
4749;DHT22;2388;53.582;9.962;2024-01-11T05:55:28;-0.50;99.90
4749;DHT22;2388;53.582;9.962;2024-01-11T05:57:54;-0.50;99.90
4749;DHT22;2388;53.582;9.962;2024-01-11T06:00:20;-0.50;99.90
4749;DHT22;2388;53.582;9.962;2024-01-11T06:02:45;-0.50;99.90
4749;DHT22;2388;53.582;9.962;2024-01-11T06:05:11;-0.60;99.90
4749;DHT22;2388;53.582;9.962;2024-01-11T06:07:37;-0.50;99.90
4749;DHT22;2388;53.582;9.962;2024-01-11T06:10:04;-0.50;99.90
4749;DHT22;2388;53.582;9.962;2024-01-11T06:12:31;-0.50;99.90
4749;DHT22;2388;53.582;9.962;2024-01-11T06:14:56;-0.50;99.90
4749;DHT22;2388;53.582;9.962;2024-01-11T06:17:23;-0.50;99.90
4749;DHT22;2388;53.582;9.962;2024-01-11T06:19:49;-0.50;99.90
4749;DHT22;2388;53.582;9.962;2024-01-11T06:22:14;-0.50;99.90
4749;DHT22;2388;53.582;9.962;2024-01-11T06:24:40;-0.50;99.90
4749;DHT22;2388;53.582;9.962;2024-01-11T06:27:05;-0.50;99.90
4749;DHT22;2388;53.582;9.962;2024-01-11T06:29:31;-0.50;99.90
4749;DHT22;2388;53.582;9.962;2024-01-11T06:31:56;-0.50;99.90
4749;DHT22;2388;53.582;9.962;2024-01-11T06:34:22;-0.50;99.90
4749;DHT22;2388;53.582;9.962;2024-01-11T06:36:47;-0.50;99.90
4749;DHT22;2388;53.582;9.962;2024-01-11T06:39:13;-0.50;99.90
4749;DHT22;2388;53.582;9.962;2024-01-11T06:41:38;-0.50;99.90
4749;DHT22;2388;53.582;9.962;2024-01-11T06:44:04;-0.40;99.90
4749;DHT22;2388;53.582;9.962;2024-01-11T06:46:29;-0.40;99.90
4749;DHT22;2388;53.582;9.962;2024-01-11T06:48:55;-0.40;99.90
4749;DHT22;2388;53.582;9.962;2024-01-11T06:51:22;-0.40;99.90
4749;DHT22;2388;53.582;9.962;2024-01-11T06:53:47;-0.40;99.90
4749;DHT22;2388;53.582;9.962;2024-01-11T06:56:18;-0.40;99.90
4749;DHT22;2388;53.582;9.962;2024-01-11T06:58:44;-0.40;99.90
4749;DHT22;2388;53.582;9.962;2024-01-11T07:01:10;-0.40;99.90
4749;DHT22;2388;53.582;9.962;2024-01-11T07:03:36;-0.50;99.90
4749;DHT22;2388;53.582;9.962;2024-01-11T07:06:02;-0.50;99.90
4749;DHT22;2388;53.582;9.962;2024-01-11T07:08:29;-0.50;99.90
4749;DHT22;2388;53.582;9.962;2024-01-11T07:10:54;-0.50;99.90
4749;DHT22;2388;53.582;9.962;2024-01-11T07:13:20;-0.50;99.90
4749;DHT22;2388;53.582;9.962;2024-01-11T07:15:45;-0.40;99.90
4749;DHT22;2388;53.582;9.962;2024-01-11T07:18:11;-0.40;99.90
4749;DHT22;2388;53.582;9.962;2024-01-11T07:20:37;-0.40;99.90
4749;DHT22;2388;53.582;9.962;2024-01-11T07:23:02;-0.30;99.90
4749;DHT22;2388;53.582;9.962;2024-01-11T07:25:28;-0.30;99.90
4749;DHT22;2388;53.582;9.962;2024-01-11T07:27:53;-0.40;99.90
4749;DHT22;2388;53.582;9.962;2024-01-11T07:30:19;-0.30;99.90
4749;DHT22;2388;53.582;9.962;2024-01-11T07:32:44;-0.40;99.90
4749;DHT22;2388;53.582;9.962;2024-01-11T07:35:10;-0.30;99.90
4749;DHT22;2388;53.582;9.962;2024-01-11T07:37:39;-0.40;99.90
4749;DHT22;2388;53.582;9.962;2024-01-11T07:40:08;-0.40;99.90
4749;DHT22;2388;53.582;9.962;2024-01-11T07:42:40;-0.40;99.90
4749;DHT22;2388;53.582;9.962;2024-01-11T07:45:07;-0.30;99.90
4749;DHT22;2388;53.582;9.962;2024-01-11T07:47:33;-0.30;99.90
4749;DHT22;2388;53.582;9.962;2024-01-11T07:49:59;-0.30;99.90
4749;DHT22;2388;53.582;9.962;2024-01-11T07:52:24;-0.30;99.90
4749;DHT22;2388;53.582;9.962;2024-01-11T07:54:50;-0.20;99.90
4749;DHT22;2388;53.582;9.962;2024-01-11T07:57:15;-0.30;99.90
4749;DHT22;2388;53.582;9.962;2024-01-11T07:59:41;-0.20;99.90
4749;DHT22;2388;53.582;9.962;2024-01-11T08:02:06;-0.20;99.90
4749;DHT22;2388;53.582;9.962;2024-01-11T08:04:32;-0.20;99.90
4749;DHT22;2388;53.582;9.962;2024-01-11T08:06:58;-0.20;99.90
4749;DHT22;2388;53.582;9.962;2024-01-11T08:09:25;-0.20;99.90
4749;DHT22;2388;53.582;9.962;2024-01-11T08:11:51;-0.10;99.90
4749;DHT22;2388;53.582;9.962;2024-01-11T08:14:17;-0.10;99.90
4749;DHT22;2388;53.582;9.962;2024-01-11T08:16:43;-0.10;99.90
4749;DHT22;2388;53.582;9.962;2024-01-11T08:19:09;-0.10;99.90
4749;DHT22;2388;53.582;9.962;2024-01-11T08:21:35;0.00;99.90
4749;DHT22;2388;53.582;9.962;2024-01-11T08:24:01;-0.10;99.90
4749;DHT22;2388;53.582;9.962;2024-01-11T08:26:28;0.00;99.90
4749;DHT22;2388;53.582;9.962;2024-01-11T08:28:53;0.00;99.90
4749;DHT22;2388;53.582;9.962;2024-01-11T08:31:19;-0.10;99.90
4749;DHT22;2388;53.582;9.962;2024-01-11T08:33:44;0.00;99.90
4749;DHT22;2388;53.582;9.962;2024-01-11T08:36:10;0.00;99.90
4749;DHT22;2388;53.582;9.962;2024-01-11T08:38:37;0.00;99.90
4749;DHT22;2388;53.582;9.962;2024-01-11T08:41:02;0.00;99.90
4749;DHT22;2388;53.582;9.962;2024-01-11T08:43:28;0.00;99.90
4749;DHT22;2388;53.582;9.962;2024-01-11T08:45:54;0.00;99.90
4749;DHT22;2388;53.582;9.962;2024-01-11T08:48:20;0.00;99.90
4749;DHT22;2388;53.582;9.962;2024-01-11T08:50:46;0.00;99.90
4749;DHT22;2388;53.582;9.962;2024-01-11T08:53:11;0.10;99.90
4749;DHT22;2388;53.582;9.962;2024-01-11T08:55:37;0.10;99.90
4749;DHT22;2388;53.582;9.962;2024-01-11T08:58:03;0.10;99.90
4749;DHT22;2388;53.582;9.962;2024-01-11T09:00:29;0.20;99.90
4749;DHT22;2388;53.582;9.962;2024-01-11T09:02:55;0.20;99.90
4749;DHT22;2388;53.582;9.962;2024-01-11T09:05:20;0.20;99.90
4749;DHT22;2388;53.582;9.962;2024-01-11T09:07:46;0.20;99.90
4749;DHT22;2388;53.582;9.962;2024-01-11T09:10:12;0.20;99.90
4749;DHT22;2388;53.582;9.962;2024-01-11T09:12:38;0.30;99.90
4749;DHT22;2388;53.582;9.962;2024-01-11T09:15:04;0.20;99.90
4749;DHT22;2388;53.582;9.962;2024-01-11T09:17:29;0.40;99.90
4749;DHT22;2388;53.582;9.962;2024-01-11T09:19:55;0.70;99.90
4749;DHT22;2388;53.582;9.962;2024-01-11T09:22:20;0.90;99.90
4749;DHT22;2388;53.582;9.962;2024-01-11T09:24:46;1.10;99.90
4749;DHT22;2388;53.582;9.962;2024-01-11T09:27:11;1.00;99.90
4749;DHT22;2388;53.582;9.962;2024-01-11T09:29:45;1.10;99.90
4749;DHT22;2388;53.582;9.962;2024-01-11T09:32:12;1.30;99.90
4749;DHT22;2388;53.582;9.962;2024-01-11T09:34:37;1.40;99.90
4749;DHT22;2388;53.582;9.962;2024-01-11T09:37:03;1.50;99.90
4749;DHT22;2388;53.582;9.962;2024-01-11T09:39:29;1.30;99.90
4749;DHT22;2388;53.582;9.962;2024-01-11T09:42:08;1.10;99.90
4749;DHT22;2388;53.582;9.962;2024-01-11T09:44:38;1.10;99.90
4749;DHT22;2388;53.582;9.962;2024-01-11T09:47:04;1.00;99.90
4749;DHT22;2388;53.582;9.962;2024-01-11T09:49:33;0.90;99.90
4749;DHT22;2388;53.582;9.962;2024-01-11T09:52:00;0.90;99.90
4749;DHT22;2388;53.582;9.962;2024-01-11T09:54:27;0.80;99.90
4749;DHT22;2388;53.582;9.962;2024-01-11T09:56:54;0.80;99.90
4749;DHT22;2388;53.582;9.962;2024-01-11T09:59:20;0.70;99.90
4749;DHT22;2388;53.582;9.962;2024-01-11T10:01:49;0.60;99.90
4749;DHT22;2388;53.582;9.962;2024-01-11T10:04:16;0.60;99.90
4749;DHT22;2388;53.582;9.962;2024-01-11T10:06:42;0.60;99.90
4749;DHT22;2388;53.582;9.962;2024-01-11T10:09:08;0.60;99.90
4749;DHT22;2388;53.582;9.962;2024-01-11T10:11:34;0.50;99.90
4749;DHT22;2388;53.582;9.962;2024-01-11T10:14:00;0.50;99.90
4749;DHT22;2388;53.582;9.962;2024-01-11T10:16:28;0.50;99.90
4749;DHT22;2388;53.582;9.962;2024-01-11T10:18:54;0.50;99.90
4749;DHT22;2388;53.582;9.962;2024-01-11T10:21:21;0.50;99.90
4749;DHT22;2388;53.582;9.962;2024-01-11T10:23:46;0.50;99.90
4749;DHT22;2388;53.582;9.962;2024-01-11T10:26:15;0.50;99.90
4749;DHT22;2388;53.582;9.962;2024-01-11T10:28:44;0.60;99.90
4749;DHT22;2388;53.582;9.962;2024-01-11T10:31:10;0.60;99.90
4749;DHT22;2388;53.582;9.962;2024-01-11T10:33:35;0.60;99.90
4749;DHT22;2388;53.582;9.962;2024-01-11T10:36:01;0.70;99.90
4749;DHT22;2388;53.582;9.962;2024-01-11T10:38:30;0.70;99.90
4749;DHT22;2388;53.582;9.962;2024-01-11T10:40:59;0.70;99.90
4749;DHT22;2388;53.582;9.962;2024-01-11T10:43:26;0.70;99.90
4749;DHT22;2388;53.582;9.962;2024-01-11T10:45:55;0.70;99.90
4749;DHT22;2388;53.582;9.962;2024-01-11T10:48:25;0.60;99.90
4749;DHT22;2388;53.582;9.962;2024-01-11T10:51:01;0.70;99.90
4749;DHT22;2388;53.582;9.962;2024-01-11T10:55:59;0.80;99.90
4749;DHT22;2388;53.582;9.962;2024-01-11T10:58:26;0.80;99.90
4749;DHT22;2388;53.582;9.962;2024-01-11T11:00:54;0.90;99.90
4749;DHT22;2388;53.582;9.962;2024-01-11T11:03:23;0.90;99.90
4749;DHT22;2388;53.582;9.962;2024-01-11T11:05:49;1.00;99.90
4749;DHT22;2388;53.582;9.962;2024-01-11T11:08:16;1.00;99.90
4749;DHT22;2388;53.582;9.962;2024-01-11T11:10:42;1.10;99.90
4749;DHT22;2388;53.582;9.962;2024-01-11T11:13:10;1.10;99.90
4749;DHT22;2388;53.582;9.962;2024-01-11T11:15:38;1.10;99.90
4749;DHT22;2388;53.582;9.962;2024-01-11T11:18:04;1.10;99.90
4749;DHT22;2388;53.582;9.962;2024-01-11T11:20:31;1.20;99.90
4749;DHT22;2388;53.582;9.962;2024-01-11T11:23:08;1.30;99.90
4749;DHT22;2388;53.582;9.962;2024-01-11T11:25:35;1.30;99.90
4749;DHT22;2388;53.582;9.962;2024-01-11T11:28:01;1.30;99.90
4749;DHT22;2388;53.582;9.962;2024-01-11T11:30:32;1.30;99.90
4749;DHT22;2388;53.582;9.962;2024-01-11T11:33:25;1.30;99.90
4749;DHT22;2388;53.582;9.962;2024-01-11T11:35:57;1.20;99.90
4749;DHT22;2388;53.582;9.962;2024-01-11T11:38:27;1.20;99.90
4749;DHT22;2388;53.582;9.962;2024-01-11T11:41:00;1.20;99.90
4749;DHT22;2388;53.582;9.962;2024-01-11T11:43:27;1.30;99.90
4749;DHT22;2388;53.582;9.962;2024-01-11T11:45:53;1.20;99.90
4749;DHT22;2388;53.582;9.962;2024-01-11T11:53:36;1.30;99.90
4749;DHT22;2388;53.582;9.962;2024-01-11T11:56:03;1.30;99.90
4749;DHT22;2388;53.582;9.962;2024-01-11T11:58:30;1.30;99.90
4749;DHT22;2388;53.582;9.962;2024-01-11T12:00:57;1.40;99.90
4749;DHT22;2388;53.582;9.962;2024-01-11T12:03:31;1.40;99.90
4749;DHT22;2388;53.582;9.962;2024-01-11T12:05:58;1.40;99.90
4749;DHT22;2388;53.582;9.962;2024-01-11T12:08:24;1.40;99.90
4749;DHT22;2388;53.582;9.962;2024-01-11T12:10:50;2.10;99.90
4749;DHT22;2388;53.582;9.962;2024-01-11T12:13:16;1.40;99.90
4749;DHT22;2388;53.582;9.962;2024-01-11T12:15:42;1.40;99.90
4749;DHT22;2388;53.582;9.962;2024-01-11T12:18:09;1.50;99.90
4749;DHT22;2388;53.582;9.962;2024-01-11T12:20:35;1.50;99.90
4749;DHT22;2388;53.582;9.962;2024-01-11T12:23:01;1.50;99.90
4749;DHT22;2388;53.582;9.962;2024-01-11T12:25:28;1.50;99.90
4749;DHT22;2388;53.582;9.962;2024-01-11T12:27:54;1.50;99.90
4749;DHT22;2388;53.582;9.962;2024-01-11T12:30:22;1.50;99.90
4749;DHT22;2388;53.582;9.962;2024-01-11T12:32:49;1.50;99.90
4749;DHT22;2388;53.582;9.962;2024-01-11T12:35:15;1.50;99.90
4749;DHT22;2388;53.582;9.962;2024-01-11T12:37:41;1.60;99.90
4749;DHT22;2388;53.582;9.962;2024-01-11T12:40:07;1.60;99.90
4749;DHT22;2388;53.582;9.962;2024-01-11T12:42:35;1.60;99.90
4749;DHT22;2388;53.582;9.962;2024-01-11T12:45:01;1.60;99.90
4749;DHT22;2388;53.582;9.962;2024-01-11T12:47:26;1.70;99.90
4749;DHT22;2388;53.582;9.962;2024-01-11T12:49:52;1.70;99.90
4749;DHT22;2388;53.582;9.962;2024-01-11T12:52:18;1.70;99.90
4749;DHT22;2388;53.582;9.962;2024-01-11T12:54:52;1.70;99.90
4749;DHT22;2388;53.582;9.962;2024-01-11T12:57:19;1.70;99.90
4749;DHT22;2388;53.582;9.962;2024-01-11T12:59:47;1.70;99.90
4749;DHT22;2388;53.582;9.962;2024-01-11T13:02:14;1.80;99.90
4749;DHT22;2388;53.582;9.962;2024-01-11T13:04:40;1.80;99.90
4749;DHT22;2388;53.582;9.962;2024-01-11T13:07:08;1.80;99.90
4749;DHT22;2388;53.582;9.962;2024-01-11T13:09:34;1.90;99.90
4749;DHT22;2388;53.582;9.962;2024-01-11T13:12:00;1.90;99.90
4749;DHT22;2388;53.582;9.962;2024-01-11T13:14:25;1.90;99.90
4749;DHT22;2388;53.582;9.962;2024-01-11T13:16:51;1.90;99.90
4749;DHT22;2388;53.582;9.962;2024-01-11T13:19:16;1.90;99.90
4749;DHT22;2388;53.582;9.962;2024-01-11T13:21:42;1.90;99.90
4749;DHT22;2388;53.582;9.962;2024-01-11T13:24:08;2.00;99.90
4749;DHT22;2388;53.582;9.962;2024-01-11T13:26:34;2.00;99.90
4749;DHT22;2388;53.582;9.962;2024-01-11T13:29:00;2.00;99.90
4749;DHT22;2388;53.582;9.962;2024-01-11T13:31:25;2.00;99.90
4749;DHT22;2388;53.582;9.962;2024-01-11T13:33:51;2.10;99.90
4749;DHT22;2388;53.582;9.962;2024-01-11T13:36:18;2.10;99.90
4749;DHT22;2388;53.582;9.962;2024-01-11T13:38:44;2.20;99.90
4749;DHT22;2388;53.582;9.962;2024-01-11T13:41:09;2.20;99.90
4749;DHT22;2388;53.582;9.962;2024-01-11T13:43:35;2.20;99.90
4749;DHT22;2388;53.582;9.962;2024-01-11T13:46:01;2.20;99.90
4749;DHT22;2388;53.582;9.962;2024-01-11T13:48:31;2.20;99.90
4749;DHT22;2388;53.582;9.962;2024-01-11T13:50:57;2.20;99.90
4749;DHT22;2388;53.582;9.962;2024-01-11T13:53:23;2.30;99.90
4749;DHT22;2388;53.582;9.962;2024-01-11T13:55:48;2.30;99.90
4749;DHT22;2388;53.582;9.962;2024-01-11T13:58:14;2.30;99.90
4749;DHT22;2388;53.582;9.962;2024-01-11T14:00:40;2.30;99.90
4749;DHT22;2388;53.582;9.962;2024-01-11T14:03:06;2.40;99.90
4749;DHT22;2388;53.582;9.962;2024-01-11T14:05:32;2.40;99.90
4749;DHT22;2388;53.582;9.962;2024-01-11T14:07:58;2.40;99.90
4749;DHT22;2388;53.582;9.962;2024-01-11T14:10:24;2.40;99.90
4749;DHT22;2388;53.582;9.962;2024-01-11T14:12:50;2.40;99.90
4749;DHT22;2388;53.582;9.962;2024-01-11T14:15:15;2.30;99.90
4749;DHT22;2388;53.582;9.962;2024-01-11T14:17:41;2.40;99.90
4749;DHT22;2388;53.582;9.962;2024-01-11T14:20:07;2.40;99.90
4749;DHT22;2388;53.582;9.962;2024-01-11T14:22:37;2.40;99.90
4749;DHT22;2388;53.582;9.962;2024-01-11T14:25:03;2.50;99.90
4749;DHT22;2388;53.582;9.962;2024-01-11T14:27:29;2.50;99.90
4749;DHT22;2388;53.582;9.962;2024-01-11T14:29:56;2.40;99.90
4749;DHT22;2388;53.582;9.962;2024-01-11T14:32:21;2.40;99.90
4749;DHT22;2388;53.582;9.962;2024-01-11T14:34:47;2.40;99.90
4749;DHT22;2388;53.582;9.962;2024-01-11T14:37:13;2.40;99.90
4749;DHT22;2388;53.582;9.962;2024-01-11T14:39:39;2.30;99.90
4749;DHT22;2388;53.582;9.962;2024-01-11T14:42:04;2.40;99.90
4749;DHT22;2388;53.582;9.962;2024-01-11T14:44:30;2.40;99.90
4749;DHT22;2388;53.582;9.962;2024-01-11T14:46:56;2.40;99.90
4749;DHT22;2388;53.582;9.962;2024-01-11T14:49:22;2.40;99.90
4749;DHT22;2388;53.582;9.962;2024-01-11T14:51:49;2.40;99.90
4749;DHT22;2388;53.582;9.962;2024-01-11T14:54:14;2.50;99.90
4749;DHT22;2388;53.582;9.962;2024-01-11T14:56:39;2.50;99.90
4749;DHT22;2388;53.582;9.962;2024-01-11T14:59:05;2.50;99.90
4749;DHT22;2388;53.582;9.962;2024-01-11T15:01:30;2.50;99.90
4749;DHT22;2388;53.582;9.962;2024-01-11T15:03:56;2.50;99.90
4749;DHT22;2388;53.582;9.962;2024-01-11T15:06:21;2.50;99.90
4749;DHT22;2388;53.582;9.962;2024-01-11T15:08:47;2.50;99.90
4749;DHT22;2388;53.582;9.962;2024-01-11T15:11:12;2.50;99.90
4749;DHT22;2388;53.582;9.962;2024-01-11T15:13:38;2.50;99.90
4749;DHT22;2388;53.582;9.962;2024-01-11T15:16:03;2.50;99.90
4749;DHT22;2388;53.582;9.962;2024-01-11T15:18:29;2.50;99.90
4749;DHT22;2388;53.582;9.962;2024-01-11T15:20:54;2.50;99.90
4749;DHT22;2388;53.582;9.962;2024-01-11T15:23:20;2.50;99.90
4749;DHT22;2388;53.582;9.962;2024-01-11T15:25:45;2.50;99.90
4749;DHT22;2388;53.582;9.962;2024-01-11T15:28:11;2.50;99.90
4749;DHT22;2388;53.582;9.962;2024-01-11T15:30:36;2.50;99.90
4749;DHT22;2388;53.582;9.962;2024-01-11T15:33:02;2.50;99.90
4749;DHT22;2388;53.582;9.962;2024-01-11T15:35:28;2.50;99.90
4749;DHT22;2388;53.582;9.962;2024-01-11T15:37:54;2.50;99.90
4749;DHT22;2388;53.582;9.962;2024-01-11T15:40:19;2.50;99.90
4749;DHT22;2388;53.582;9.962;2024-01-11T15:42:45;2.40;99.90
4749;DHT22;2388;53.582;9.962;2024-01-11T15:45:10;2.50;99.90
4749;DHT22;2388;53.582;9.962;2024-01-11T15:47:39;2.50;99.90
4749;DHT22;2388;53.582;9.962;2024-01-11T15:50:05;2.50;99.90
4749;DHT22;2388;53.582;9.962;2024-01-11T15:52:37;2.50;99.90
4749;DHT22;2388;53.582;9.962;2024-01-11T15:55:04;2.50;99.90
4749;DHT22;2388;53.582;9.962;2024-01-11T15:57:31;2.50;99.90
4749;DHT22;2388;53.582;9.962;2024-01-11T15:59:57;2.50;99.90
4749;DHT22;2388;53.582;9.962;2024-01-11T16:02:22;2.50;99.90
4749;DHT22;2388;53.582;9.962;2024-01-11T16:04:48;2.50;99.90
4749;DHT22;2388;53.582;9.962;2024-01-11T16:07:14;2.50;99.90
4749;DHT22;2388;53.582;9.962;2024-01-11T16:09:39;2.40;99.90
4749;DHT22;2388;53.582;9.962;2024-01-11T16:12:06;2.40;99.90